Time;durP1;ratioP1;P1;durP2;ratioP2;P2;SDS_P1;SDS_P2;PMS_P1;PMS_P2;Temp;Humidity;BMP_temperature;BMP_pressure;BME280_temperature;BME280_humidity;BME280_pressure;Samples;Min_cycle;Max_cycle;Signal;HPM_P1;HPM_P2
2021/06/25 00:00:08;;;;;;;12.70;9.48;;;;;;;;;;349262;28;1125;-74
2021/06/25 00:00:20;;;;;;;13.38;9.27;;;;;;;;;;348735;28;16708;-74
2021/06/25 00:00:33;;;;;;;12.77;9.05;;;;;;;;;;349270;28;1001;-75
2021/06/25 00:00:45;;;;;;;13.15;9.00;;;;;;;;;;349954;28;1234;-74
2021/06/25 00:00:57;;;;;;;14.02;9.05;;;;;;;;;;350748;28;1140;-74
2021/06/25 00:01:10;;;;;;;12.90;9.10;;;;;;;;;;349952;28;1081;-75
2021/06/25 00:01:22;;;;;;;11.95;9.00;;;;;;;;;;348271;28;1058;-74
2021/06/25 00:01:34;;;;;;;12.38;8.73;;;;;;;;;;348275;28;1102;-74
2021/06/25 00:01:47;;;;;;;12.30;9.07;;;;;;;;;;347991;28;1105;-74
2021/06/25 00:01:59;;;;;;;12.95;9.35;;;;;;;;;;348116;28;1221;-74
2021/06/25 00:02:11;;;;;;;12.18;9.43;;;;;;;;;;347917;28;1189;-75
2021/06/25 00:02:23;;;;;;;12.57;9.23;;;;;;;;;;347946;28;1002;-74
2021/06/25 00:02:36;;;;;;;12.15;9.02;;;;;;;;;;347923;28;1169;-74
2021/06/25 00:02:48;;;;;;;11.77;9.05;;;;;;;;;;346896;28;1078;-74
2021/06/25 00:03:01;;;;;;;11.85;9.18;;;;;;;;;;346704;28;1033;-74
2021/06/25 00:03:13;;;;;;;12.20;9.25;;;;;;;;;;347674;28;1292;-74
2021/06/25 00:03:25;;;;;;;11.98;9.05;;;;;;;;;;347762;28;1064;-74
2021/06/25 00:03:38;;;;;;;11.60;9.13;;;;;;;;;;348048;28;1168;-74
2021/06/25 00:03:51;;;;;;;11.18;9.40;;;;;;;;;;346540;28;1022;-74
2021/06/25 00:04:03;;;;;;;13.50;9.77;;;;;;;;;;346628;28;1141;-74
2021/06/25 00:04:15;;;;;;;13.95;9.50;;;;;;;;;;347967;28;1026;-74
2021/06/25 00:04:27;;;;;;;13.13;9.35;;;;;;;;;;347825;28;1071;-74
2021/06/25 00:04:39;;;;;;;12.63;9.15;;;;;;;;;;346687;28;1006;-74
2021/06/25 00:04:51;;;;;;;12.15;9.32;;;;;;;;;;346422;28;1086;-74
2021/06/25 00:05:04;;;;;;;12.60;9.60;;;;;;;;;;346345;28;1915;-73
2021/06/25 00:05:16;;;;;;;11.98;9.38;;;;;;;;;;346518;28;1637;-74
2021/06/25 00:05:28;;;;;;;11.36;9.16;;;;;;;;;;346624;28;1098;-73
2021/06/25 00:05:42;;;;;;;10.57;9.07;;;;;;;;;;346477;28;1189;-73
2021/06/25 00:05:54;;;;;;;11.02;9.00;;;;;;;;;;347451;28;995;-73
2021/06/25 00:06:07;;;;;;;11.55;9.13;;;;;;;;;;347993;28;1013;-73
2021/06/25 00:06:19;;;;;;;12.18;9.38;;;;;;;;;;346868;28;1142;-73
2021/06/25 00:06:31;;;;;;;11.65;9.10;;;;;;;;;;346837;28;1021;-73
2021/06/25 00:06:43;;;;;;;12.50;9.18;;;;;;;;;;347897;28;1014;-73
2021/06/25 00:06:55;;;;;;;15.73;9.25;;;;;;;;;;348060;28;1151;-74
2021/06/25 00:07:08;;;;;;;14.32;9.27;;;;;;;;;;348016;28;1121;-74
2021/06/25 00:07:20;;;;;;;14.02;9.25;;;;;;;;;;348288;28;1149;-74
2021/06/25 00:07:32;;;;;;;13.13;9.27;;;;;;;;;;348068;28;1109;-74
2021/06/25 00:07:44;;;;;;;13.45;9.27;;;;;;;;;;348045;28;1184;-73
2021/06/25 00:07:56;;;;;;;11.50;9.02;;;;;;;;;;346417;28;1079;-73
2021/06/25 00:08:08;;;;;;;11.13;9.27;;;;;;;;;;346500;28;1056;-74
2021/06/25 00:08:20;;;;;;;11.52;9.00;;;;;;;;;;346433;28;1118;-74
2021/06/25 00:08:33;;;;;;;12.60;9.00;;;;;;;;;;346508;28;1076;-73
2021/06/25 00:08:45;;;;;;;12.55;8.98;;;;;;;;;;346515;28;1058;-73
2021/06/25 00:08:57;;;;;;;13.13;9.30;;;;;;;;;;346646;28;1014;-75
2021/06/25 00:09:09;;;;;;;11.50;9.00;;;;;;;;;;346877;28;1149;-73
2021/06/25 00:09:21;;;;;;;11.68;9.07;;;;;;;;;;347993;28;1034;-74
2021/06/25 00:09:33;;;;;;;12.90;9.10;;;;;;;;;;347914;28;1088;-74
2021/06/25 00:09:46;;;;;;;13.13;9.43;;;;;;;;;;347879;28;1518;-74
2021/06/25 00:09:58;;;;;;;13.07;9.20;;;;;;;;;;347887;28;1169;-74
2021/06/25 00:10:11;;;;;;;12.10;9.45;;;;;;;;;;348706;28;1309;-74
2021/06/25 00:10:23;;;;;;;13.43;9.35;;;;;;;;;;349002;28;2039;-74
2021/06/25 00:10:35;;;;;;;13.32;9.05;;;;;;;;;;349116;28;1038;-74
2021/06/25 00:10:48;;;;;;;14.52;9.02;;;;;;;;;;349185;28;1083;-73
2021/06/25 00:11:00;;;;;;;12.90;9.35;;;;;;;;;;349282;28;1171;-74
2021/06/25 00:11:12;;;;;;;12.18;9.50;;;;;;;;;;349330;28;1068;-73
2021/06/25 00:11:24;;;;;;;12.15;9.63;;;;;;;;;;348523;28;1142;-74
2021/06/25 00:11:37;;;;;;;12.13;9.48;;;;;;;;;;347992;28;1002;-74
2021/06/25 00:11:49;;;;;;;11.30;9.20;;;;;;;;;;348154;28;1086;-74
2021/06/25 00:12:02;;;;;;;11.45;9.00;;;;;;;;;;347878;28;1124;-74
2021/06/25 00:12:14;;;;;;;11.52;9.05;;;;;;;;;;347962;28;1114;-73
2021/06/25 00:12:26;;;;;;;12.65;9.70;;;;;;;;;;347940;28;1050;-74
2021/06/25 00:12:38;;;;;;;12.52;9.73;;;;;;;;;;348064;28;1035;-73
2021/06/25 00:12:51;;;;;;;13.98;9.55;;;;;;;;;;347918;28;995;-74
2021/06/25 00:13:03;;;;;;;14.88;9.45;;;;;;;;;;348112;28;1062;-73
2021/06/25 00:13:16;;;;;;;13.70;9.50;;;;;;;;;;347848;28;1050;-74
2021/06/25 00:13:28;;;;;;;11.90;9.48;;;;;;;;;;347641;28;944;-73
2021/06/25 00:13:40;;;;;;;12.00;10.00;;;;;;;;;;348037;28;1145;-73
2021/06/25 00:13:54;;;;;;;12.77;10.07;;;;;;;;;;348035;28;1164;-74
2021/06/25 00:14:06;;;;;;;13.55;9.70;;;;;;;;;;347416;28;16694;-74
2021/06/25 00:14:21;;;;;;;12.30;9.18;;;;;;;;;;346362;28;1746;-73
2021/06/25 00:14:34;;;;;;;12.00;9.40;;;;;;;;;;345212;28;40806;-73
2021/06/25 00:14:46;;;;;;;12.35;9.60;;;;;;;;;;347870;28;983;-73
2021/06/25 00:14:58;;;;;;;11.52;9.25;;;;;;;;;;347823;28;1073;-74
2021/06/25 00:15:10;;;;;;;11.73;9.30;;;;;;;;;;347946;28;1046;-74
2021/06/25 00:15:23;;;;;;;12.32;9.52;;;;;;;;;;347719;28;1079;-73
2021/06/25 00:15:35;;;;;;;11.25;9.25;;;;;;;;;;348076;28;1073;-73
2021/06/25 00:15:47;;;;;;;11.32;9.25;;;;;;;;;;347720;28;1027;-74
2021/06/25 00:16:01;;;;;;;11.43;9.40;;;;;;;;;;347876;28;1141;-74
2021/06/25 00:16:13;;;;;;;12.43;9.52;;;;;;;;;;347822;28;1080;-73
2021/06/25 00:16:25;;;;;;;12.43;9.25;;;;;;;;;;349554;28;1054;-74
2021/06/25 00:16:37;;;;;;;11.32;9.40;;;;;;;;;;349144;28;1173;-73
2021/06/25 00:16:50;;;;;;;11.13;9.35;;;;;;;;;;348203;28;1054;-73
2021/06/25 00:17:03;;;;;;;11.35;9.15;;;;;;;;;;348124;28;1185;-73
2021/06/25 00:17:15;;;;;;;12.82;9.25;;;;;;;;;;347913;28;1104;-74
2021/06/25 00:17:27;;;;;;;13.57;9.18;;;;;;;;;;347931;28;1300;-74
2021/06/25 00:17:40;;;;;;;13.93;8.95;;;;;;;;;;348050;28;1098;-74
2021/06/25 00:17:53;;;;;;;13.18;9.30;;;;;;;;;;348055;28;1107;-74
2021/06/25 00:18:05;;;;;;;13.80;9.52;;;;;;;;;;348058;28;1148;-74
2021/06/25 00:18:17;;;;;;;13.50;9.50;;;;;;;;;;347777;28;1070;-75
2021/06/25 00:18:29;;;;;;;12.60;9.40;;;;;;;;;;348038;28;1156;-74
2021/06/25 00:18:41;;;;;;;11.00;9.07;;;;;;;;;;347897;28;1073;-73
2021/06/25 00:18:54;;;;;;;12.85;9.70;;;;;;;;;;348217;28;1085;-74
2021/06/25 00:19:06;;;;;;;13.35;9.98;;;;;;;;;;347925;28;1097;-73
2021/06/25 00:19:18;;;;;;;13.85;9.70;;;;;;;;;;348097;28;1135;-75
2021/06/25 00:19:30;;;;;;;12.60;9.30;;;;;;;;;;348020;28;1058;-74
2021/06/25 00:19:42;;;;;;;11.48;9.30;;;;;;;;;;348101;28;990;-74
2021/06/25 00:19:55;;;;;;;11.85;9.48;;;;;;;;;;348040;28;1230;-73
2021/06/25 00:20:07;;;;;;;12.00;9.13;;;;;;;;;;347952;28;962;-73
2021/06/25 00:20:20;;;;;;;12.38;9.40;;;;;;;;;;347914;28;1100;-74
2021/06/25 00:20:32;;;;;;;11.63;9.70;;;;;;;;;;348113;28;1042;-74
2021/06/25 00:20:45;;;;;;;11.02;9.85;;;;;;;;;;349294;28;1239;-74
2021/06/25 00:20:57;;;;;;;11.23;9.63;;;;;;;;;;349335;28;1090;-74
2021/06/25 00:21:09;;;;;;;11.88;9.63;;;;;;;;;;349281;28;1294;-73
2021/06/25 00:21:21;;;;;;;12.18;9.40;;;;;;;;;;349434;28;1953;-74
2021/06/25 00:21:33;;;;;;;12.82;9.40;;;;;;;;;;349211;28;1006;-73
2021/06/25 00:21:46;;;;;;;14.07;9.48;;;;;;;;;;349303;28;1193;-73
2021/06/25 00:21:58;;;;;;;13.77;9.68;;;;;;;;;;349063;28;990;-72
2021/06/25 00:22:10;;;;;;;14.02;9.85;;;;;;;;;;349274;28;1211;-74
2021/06/25 00:22:24;;;;;;;12.70;9.30;;;;;;;;;;347829;28;1062;-73
2021/06/25 00:22:36;;;;;;;10.88;9.15;;;;;;;;;;347806;28;1037;-73
2021/06/25 00:22:48;;;;;;;11.32;9.25;;;;;;;;;;345488;28;1177;-73
2021/06/25 00:23:00;;;;;;;12.15;9.43;;;;;;;;;;345407;28;1058;-73
2021/06/25 00:23:12;;;;;;;12.80;9.70;;;;;;;;;;345376;28;1240;-74
2021/06/25 00:23:24;;;;;;;11.38;9.35;;;;;;;;;;345280;28;1073;-71
2021/06/25 00:23:36;;;;;;;11.65;9.52;;;;;;;;;;346780;28;1062;-73
2021/06/25 00:23:48;;;;;;;12.32;9.60;;;;;;;;;;346527;28;1076;-73
2021/06/25 00:24:01;;;;;;;12.88;9.48;;;;;;;;;;346730;28;1164;-74
2021/06/25 00:24:13;;;;;;;12.52;9.25;;;;;;;;;;347877;28;1121;-73
2021/06/25 00:24:25;;;;;;;11.82;9.50;;;;;;;;;;347379;28;991;-74
2021/06/25 00:24:38;;;;;;;12.32;9.95;;;;;;;;;;347639;28;1026;-74
2021/06/25 00:24:50;;;;;;;12.82;9.95;;;;;;;;;;348664;28;1010;-75
2021/06/25 00:25:02;;;;;;;12.24;9.42;;;;;;;;;;349212;28;1125;-74
2021/06/25 00:25:14;;;;;;;12.23;9.35;;;;;;;;;;349185;28;1078;-72
2021/06/25 00:25:26;;;;;;;12.02;9.30;;;;;;;;;;349344;28;1272;-74
2021/06/25 00:25:39;;;;;;;14.65;9.93;;;;;;;;;;348368;28;1161;-74
2021/06/25 00:25:51;;;;;;;14.07;9.85;;;;;;;;;;348102;28;1095;-74
2021/06/25 00:26:03;;;;;;;12.57;9.88;;;;;;;;;;347889;28;990;-73
2021/06/25 00:26:15;;;;;;;11.52;9.57;;;;;;;;;;347124;28;1173;-74
2021/06/25 00:26:28;;;;;;;11.40;9.30;;;;;;;;;;348604;28;1127;-73
2021/06/25 00:26:40;;;;;;;11.60;9.45;;;;;;;;;;349130;28;1969;-74
2021/06/25 00:26:52;;;;;;;11.25;9.65;;;;;;;;;;349115;28;1315;-74
2021/06/25 00:27:05;;;;;;;12.30;9.60;;;;;;;;;;349308;28;1104;-75
2021/06/25 00:27:17;;;;;;;12.57;9.68;;;;;;;;;;349201;28;1134;-73
2021/06/25 00:27:29;;;;;;;11.93;9.55;;;;;;;;;;349008;28;1200;-74
2021/06/25 00:27:41;;;;;;;11.00;9.38;;;;;;;;;;347952;28;1168;-74
2021/06/25 00:27:53;;;;;;;11.10;9.55;;;;;;;;;;347807;28;991;-74
2021/06/25 00:28:05;;;;;;;10.52;9.30;;;;;;;;;;347925;28;1150;-74
2021/06/25 00:28:18;;;;;;;11.13;9.35;;;;;;;;;;347588;28;1057;-73
2021/06/25 00:28:33;;;;;;;11.98;9.18;;;;;;;;;;340094;28;40435;-73
2021/06/25 00:28:45;;;;;;;11.30;9.25;;;;;;;;;;341086;29;1078;-74
2021/06/25 00:28:57;;;;;;;10.95;9.43;;;;;;;;;;341244;29;1099;-74
2021/06/25 00:29:09;;;;;;;11.27;9.63;;;;;;;;;;342398;28;1960;-74
2021/06/25 00:29:21;;;;;;;11.48;9.45;;;;;;;;;;342283;28;1003;-72
2021/06/25 00:29:33;;;;;;;12.32;9.45;;;;;;;;;;342382;28;1029;-75
2021/06/25 00:29:45;;;;;;;13.27;9.65;;;;;;;;;;343388;28;1146;-73
2021/06/25 00:29:58;;;;;;;12.45;9.75;;;;;;;;;;343906;28;1169;-74
2021/06/25 00:30:10;;;;;;;12.40;10.05;;;;;;;;;;343795;28;1286;-73
2021/06/25 00:30:23;;;;;;;11.95;9.82;;;;;;;;;;343635;28;1106;-73
2021/06/25 00:30:35;;;;;;;13.32;9.52;;;;;;;;;;343729;28;1165;-74
2021/06/25 00:30:47;;;;;;;15.30;9.80;;;;;;;;;;343649;28;1118;-74
2021/06/25 00:30:59;;;;;;;14.65;9.85;;;;;;;;;;343753;28;1125;-74
2021/06/25 00:31:11;;;;;;;12.88;9.55;;;;;;;;;;343336;28;1090;-73
2021/06/25 00:31:23;;;;;;;12.32;9.52;;;;;;;;;;341388;28;1368;-73
2021/06/25 00:31:36;;;;;;;13.95;9.75;;;;;;;;;;341366;28;1095;-75
2021/06/25 00:31:49;;;;;;;12.98;9.70;;;;;;;;;;341066;29;1424;-73
2021/06/25 00:32:02;;;;;;;11.13;9.48;;;;;;;;;;341204;29;1163;-72
2021/06/25 00:32:14;;;;;;;11.65;9.68;;;;;;;;;;339933;29;1083;-74
2021/06/25 00:32:26;;;;;;;13.07;9.98;;;;;;;;;;341224;29;1110;-72
2021/06/25 00:32:39;;;;;;;12.07;9.63;;;;;;;;;;341001;29;1246;-73
2021/06/25 00:32:51;;;;;;;13.45;9.50;;;;;;;;;;341022;29;1102;-74
2021/06/25 00:33:04;;;;;;;14.60;9.68;;;;;;;;;;341002;28;1094;-73
2021/06/25 00:33:16;;;;;;;13.02;9.35;;;;;;;;;;341287;29;1119;-75
2021/06/25 00:33:29;;;;;;;12.30;9.07;;;;;;;;;;341088;29;1257;-74
2021/06/25 00:33:42;;;;;;;12.25;9.38;;;;;;;;;;341037;29;1005;-74
2021/06/25 00:33:54;;;;;;;11.43;9.45;;;;;;;;;;340778;29;1139;-75
2021/06/25 00:34:06;;;;;;;10.45;9.35;;;;;;;;;;340902;29;1055;-74
2021/06/25 00:34:18;;;;;;;11.63;9.30;;;;;;;;;;341177;29;1100;-73
2021/06/25 00:34:30;;;;;;;13.27;9.30;;;;;;;;;;340105;29;1076;-74
2021/06/25 00:34:42;;;;;;;12.45;9.25;;;;;;;;;;339833;29;1156;-73
2021/06/25 00:34:55;;;;;;;12.57;9.75;;;;;;;;;;339802;29;1101;-74
2021/06/25 00:35:07;;;;;;;12.24;9.74;;;;;;;;;;339748;29;1019;-74
2021/06/25 00:35:19;;;;;;;12.95;9.77;;;;;;;;;;339832;29;1079;-73
2021/06/25 00:35:31;;;;;;;12.23;9.65;;;;;;;;;;339719;29;1027;-73
2021/06/25 00:35:43;;;;;;;11.68;9.57;;;;;;;;;;339605;29;1006;-73
2021/06/25 00:35:55;;;;;;;12.73;9.43;;;;;;;;;;339761;29;1182;-74
2021/06/25 00:36:08;;;;;;;12.70;9.45;;;;;;;;;;339934;29;1027;-72
2021/06/25 00:36:23;;;;;;;11.85;9.65;;;;;;;;;;337593;29;64168;-74
2021/06/25 00:36:35;;;;;;;11.73;9.95;;;;;;;;;;339682;29;1080;-74
2021/06/25 00:36:48;;;;;;;12.60;10.07;;;;;;;;;;339671;29;1030;-75
2021/06/25 00:37:00;;;;;;;12.93;10.20;;;;;;;;;;339830;29;1127;-73
2021/06/25 00:37:12;;;;;;;12.90;10.02;;;;;;;;;;339880;29;975;-73
2021/06/25 00:37:24;;;;;;;11.48;9.80;;;;;;;;;;339650;29;1113;-73
2021/06/25 00:37:36;;;;;;;12.73;9.60;;;;;;;;;;339807;29;1166;-73
2021/06/25 00:37:48;;;;;;;12.85;9.43;;;;;;;;;;339817;29;1099;-73
2021/06/25 00:38:00;;;;;;;13.65;9.63;;;;;;;;;;339833;29;1481;-74
2021/06/25 00:38:13;;;;;;;12.10;9.52;;;;;;;;;;339734;29;1277;-74
2021/06/25 00:38:25;;;;;;;12.50;9.63;;;;;;;;;;341060;29;1095;-74
2021/06/25 00:38:38;;;;;;;11.60;9.34;;;;;;;;;;341140;29;1272;-72
2021/06/25 00:38:50;;;;;;;11.18;9.23;;;;;;;;;;341090;29;1155;-73
2021/06/25 00:39:03;;;;;;;12.07;9.30;;;;;;;;;;341210;29;1001;-72
2021/06/25 00:39:15;;;;;;;12.73;9.45;;;;;;;;;;339973;29;1126;-73
2021/06/25 00:39:27;;;;;;;13.00;9.35;;;;;;;;;;339883;29;1090;-74
2021/06/25 00:39:39;;;;;;;13.00;9.52;;;;;;;;;;339677;29;2015;-73
2021/06/25 00:39:52;;;;;;;13.04;9.64;;;;;;;;;;339841;29;1107;-74
2021/06/25 00:40:05;;;;;;;12.50;9.55;;;;;;;;;;339888;29;1087;-73
2021/06/25 00:40:17;;;;;;;11.88;8.98;;;;;;;;;;339982;29;1073;-74
2021/06/25 00:40:29;;;;;;;10.18;9.05;;;;;;;;;;339852;29;1083;-73
2021/06/25 00:40:42;;;;;;;11.25;9.27;;;;;;;;;;338754;29;1110;-74
2021/06/25 00:40:55;;;;;;;11.68;9.30;;;;;;;;;;338362;29;1076;-73
2021/06/25 00:41:07;;;;;;;12.25;9.15;;;;;;;;;;338287;29;1096;-75
2021/06/25 00:41:19;;;;;;;11.52;9.13;;;;;;;;;;339302;29;1143;-73
2021/06/25 00:41:31;;;;;;;11.40;9.43;;;;;;;;;;339862;29;1094;-74
2021/06/25 00:41:43;;;;;;;10.98;9.73;;;;;;;;;;339843;29;1475;-74
2021/06/25 00:41:55;;;;;;;11.42;9.62;;;;;;;;;;339792;29;1118;-73
2021/06/25 00:42:08;;;;;;;11.57;9.50;;;;;;;;;;339728;29;1177;-72
2021/06/25 00:42:21;;;;;;;11.57;9.35;;;;;;;;;;339463;29;1232;-72
2021/06/25 00:42:33;;;;;;;11.68;9.20;;;;;;;;;;340029;29;1095;-73
2021/06/25 00:42:45;;;;;;;11.63;9.15;;;;;;;;;;339895;29;1236;-72
2021/06/25 00:42:57;;;;;;;10.85;9.00;;;;;;;;;;339554;29;1382;-73
2021/06/25 00:43:10;;;;;;;11.25;9.10;;;;;;;;;;339826;29;1139;-74
2021/06/25 00:43:22;;;;;;;11.27;9.05;;;;;;;;;;340376;29;1158;-73
2021/06/25 00:43:36;;;;;;;11.06;8.76;;;;;;;;;;341019;29;1111;-72
2021/06/25 00:43:48;;;;;;;11.88;8.82;;;;;;;;;;340628;29;17039;-73
2021/06/25 00:44:01;;;;;;;11.55;9.00;;;;;;;;;;339706;29;1155;-74
2021/06/25 00:44:13;;;;;;;12.70;9.18;;;;;;;;;;339732;29;1111;-73
2021/06/25 00:44:26;;;;;;;12.00;9.27;;;;;;;;;;339551;29;1093;-73
2021/06/25 00:44:39;;;;;;;11.90;9.55;;;;;;;;;;339761;29;1171;-73
2021/06/25 00:44:51;;;;;;;12.73;9.73;;;;;;;;;;339757;29;1355;-74
2021/06/25 00:45:10;;;;;;;13.25;9.85;;;;;;;;;;339642;29;1103;-72
2021/06/25 00:45:22;;;;;;;13.35;9.68;;;;;;;;;;337523;29;63636;-73
2021/06/25 00:45:34;;;;;;;12.55;9.48;;;;;;;;;;340939;29;1099;-74
2021/06/25 00:45:46;;;;;;;14.15;9.85;;;;;;;;;;341196;29;1118;-74
2021/06/25 00:45:59;;;;;;;14.07;9.85;;;;;;;;;;341076;28;1106;-74
2021/06/25 00:46:12;;;;;;;13.00;9.95;;;;;;;;;;342024;28;1170;-73
2021/06/25 00:46:24;;;;;;;11.82;10.02;;;;;;;;;;342522;28;1539;-74
2021/06/25 00:46:36;;;;;;;12.84;10.12;;;;;;;;;;342375;28;1099;-72
2021/06/25 00:46:48;;;;;;;12.63;9.98;;;;;;;;;;342463;28;1062;-75
2021/06/25 00:47:01;;;;;;;12.02;9.77;;;;;;;;;;342354;28;1133;-74
2021/06/25 00:47:13;;;;;;;11.52;9.60;;;;;;;;;;342452;28;1174;-73
2021/06/25 00:47:25;;;;;;;12.70;9.57;;;;;;;;;;342401;28;1178;-75
2021/06/25 00:47:38;;;;;;;12.35;9.38;;;;;;;;;;340211;29;1158;-73
2021/06/25 00:47:50;;;;;;;12.38;9.60;;;;;;;;;;339824;29;1016;-73
2021/06/25 00:48:02;;;;;;;11.68;9.63;;;;;;;;;;339667;29;1085;-72
2021/06/25 00:48:14;;;;;;;11.90;9.88;;;;;;;;;;339520;29;1919;-74
2021/06/25 00:48:26;;;;;;;12.10;10.02;;;;;;;;;;341058;29;1123;-73
2021/06/25 00:48:38;;;;;;;12.43;10.02;;;;;;;;;;341003;29;1076;-74
2021/06/25 00:48:50;;;;;;;12.27;9.82;;;;;;;;;;343266;28;1196;-74
2021/06/25 00:49:03;;;;;;;12.02;9.60;;;;;;;;;;346313;28;1054;-73
2021/06/25 00:49:15;;;;;;;12.45;9.65;;;;;;;;;;346619;28;1168;-74
2021/06/25 00:49:27;;;;;;;12.18;9.45;;;;;;;;;;346521;28;1068;-72
2021/06/25 00:49:39;;;;;;;12.18;9.14;;;;;;;;;;346854;28;1064;-73
2021/06/25 00:49:51;;;;;;;11.88;9.40;;;;;;;;;;347590;28;2127;-73
2021/06/25 00:50:04;;;;;;;12.35;9.63;;;;;;;;;;347926;28;1046;-72
2021/06/25 00:50:36;;;;;;;12.50;9.38;;;;;;;;;;347918;28;1176;-75
2021/06/25 00:50:49;;;;;;;11.30;9.75;;;;;;;;;;344367;28;62188;-73
2021/06/25 00:51:01;;;;;;;12.85;9.80;;;;;;;;;;346682;28;1488;-73
2021/06/25 00:51:13;;;;;;;13.95;9.77;;;;;;;;;;346502;28;1139;-73
2021/06/25 00:51:25;;;;;;;13.60;9.70;;;;;;;;;;346425;28;1047;-73
2021/06/25 00:51:37;;;;;;;13.70;9.70;;;;;;;;;;346575;28;1942;-73
2021/06/25 00:51:49;;;;;;;12.48;9.70;;;;;;;;;;346677;28;1185;-74
2021/06/25 00:52:02;;;;;;;12.10;10.00;;;;;;;;;;347721;28;1185;-73
2021/06/25 00:52:17;;;;;;;10.88;9.60;;;;;;;;;;347713;28;1105;-73
2021/06/25 00:52:30;;;;;;;10.93;9.40;;;;;;;;;;346632;28;41008;-74
2021/06/25 00:52:43;;;;;;;12.90;9.90;;;;;;;;;;347591;28;1082;-74
2021/06/25 00:52:56;;;;;;;13.35;10.05;;;;;;;;;;347852;28;1384;-72
2021/06/25 00:53:08;;;;;;;12.35;9.80;;;;;;;;;;346183;28;1073;-74
2021/06/25 00:53:20;;;;;;;12.23;9.98;;;;;;;;;;346644;28;1168;-73
2021/06/25 00:53:33;;;;;;;14.10;10.18;;;;;;;;;;346470;28;1117;-74
2021/06/25 00:53:45;;;;;;;14.32;10.00;;;;;;;;;;346425;28;1194;-73
2021/06/25 00:53:57;;;;;;;13.57;9.77;;;;;;;;;;346690;28;1094;-73
2021/06/25 00:54:10;;;;;;;13.13;10.00;;;;;;;;;;345201;28;988;-74
2021/06/25 00:54:22;;;;;;;13.15;10.18;;;;;;;;;;344610;28;16139;-73
2021/06/25 00:54:34;;;;;;;12.57;9.95;;;;;;;;;;344900;28;1010;-73
2021/06/25 00:54:48;;;;;;;12.25;9.82;;;;;;;;;;345133;28;1105;-73
2021/06/25 00:55:01;;;;;;;11.85;9.80;;;;;;;;;;344621;28;17054;-73
2021/06/25 00:55:13;;;;;;;12.00;9.63;;;;;;;;;;346133;28;1254;-74
2021/06/25 00:55:26;;;;;;;10.93;9.43;;;;;;;;;;346573;28;1111;-74
2021/06/25 00:55:44;;;;;;;10.55;9.45;;;;;;;;;;346619;28;1153;-75
2021/06/25 00:55:56;;;;;;;11.45;9.48;;;;;;;;;;344499;28;63770;-74
2021/06/25 00:56:12;;;;;;;12.00;9.80;;;;;;;;;;346451;28;1091;-74
2021/06/25 00:56:24;;;;;;;11.63;10.15;;;;;;;;;;344378;28;63800;-74
2021/06/25 00:56:37;;;;;;;11.77;10.13;;;;;;;;;;346624;28;1123;-73
2021/06/25 00:56:49;;;;;;;12.52;10.13;;;;;;;;;;346630;28;1114;-73
2021/06/25 00:57:01;;;;;;;12.48;9.73;;;;;;;;;;346556;28;1078;-75
2021/06/25 00:57:14;;;;;;;13.32;9.70;;;;;;;;;;346663;28;1154;-74
2021/06/25 00:57:26;;;;;;;13.63;9.70;;;;;;;;;;346424;28;1051;-73
2021/06/25 00:57:38;;;;;;;12.73;9.60;;;;;;;;;;347836;28;1158;-74
2021/06/25 00:57:50;;;;;;;12.00;9.15;;;;;;;;;;347717;28;1117;-73
2021/06/25 00:58:02;;;;;;;11.43;9.25;;;;;;;;;;347821;28;1367;-73
2021/06/25 00:58:15;;;;;;;11.88;9.52;;;;;;;;;;347933;28;1210;-74
2021/06/25 00:58:27;;;;;;;12.57;9.70;;;;;;;;;;347684;28;1150;-73
2021/06/25 00:58:40;;;;;;;12.98;9.32;;;;;;;;;;347718;28;1051;-73
2021/06/25 00:58:52;;;;;;;12.35;9.50;;;;;;;;;;347560;28;1102;-74
2021/06/25 00:59:05;;;;;;;11.70;9.55;;;;;;;;;;347709;28;990;-74
2021/06/25 00:59:19;;;;;;;12.75;9.88;;;;;;;;;;347886;28;1126;-73
2021/06/25 00:59:34;;;;;;;12.98;9.88;;;;;;;;;;347282;28;16709;-73
2021/06/25 00:59:46;;;;;;;12.65;9.80;;;;;;;;;;345143;28;40168;-73
2021/06/25 00:59:58;;;;;;;12.13;9.90;;;;;;;;;;346533;28;1241;-71
2021/06/25 01:00:11;;;;;;;11.52;9.90;;;;;;;;;;346323;28;1270;-74
2021/06/25 01:00:23;;;;;;;12.30;9.70;;;;;;;;;;346472;28;1440;-73
2021/06/25 01:00:36;;;;;;;13.80;9.75;;;;;;;;;;346495;28;1042;-74
2021/06/25 01:00:49;;;;;;;12.88;9.50;;;;;;;;;;345195;28;1169;-72
2021/06/25 01:01:02;;;;;;;11.15;9.38;;;;;;;;;;345173;28;1082;-73
2021/06/25 01:01:14;;;;;;;12.18;9.82;;;;;;;;;;343143;28;16789;-74
2021/06/25 01:01:26;;;;;;;14.13;10.40;;;;;;;;;;344122;28;1051;-72
2021/06/25 01:01:39;;;;;;;13.95;10.50;;;;;;;;;;345050;28;1103;-73
2021/06/25 01:01:51;;;;;;;12.98;10.25;;;;;;;;;;345164;28;1213;-74
2021/06/25 01:02:04;;;;;;;12.30;9.93;;;;;;;;;;345044;28;1709;-74
2021/06/25 01:02:16;;;;;;;13.07;9.88;;;;;;;;;;345277;28;1092;-74
2021/06/25 01:02:28;;;;;;;14.38;9.80;;;;;;;;;;345252;28;1112;-73
2021/06/25 01:02:40;;;;;;;13.57;9.75;;;;;;;;;;343785;28;1608;-74
2021/06/25 01:02:52;;;;;;;12.73;9.77;;;;;;;;;;344001;28;1047;-72
2021/06/25 01:03:05;;;;;;;12.43;9.70;;;;;;;;;;342518;28;1098;-73
2021/06/25 01:03:17;;;;;;;11.60;9.65;;;;;;;;;;342397;28;1115;-73
2021/06/25 01:03:29;;;;;;;11.80;9.63;;;;;;;;;;342453;28;1291;-73
2021/06/25 01:03:41;;;;;;;12.07;9.50;;;;;;;;;;342506;28;1142;-73
2021/06/25 01:03:54;;;;;;;11.90;9.57;;;;;;;;;;342235;28;1035;-73
2021/06/25 01:04:06;;;;;;;11.68;9.57;;;;;;;;;;342420;28;980;-72
2021/06/25 01:04:18;;;;;;;11.85;9.70;;;;;;;;;;342494;28;1110;-72
2021/06/25 01:04:30;;;;;;;12.90;9.70;;;;;;;;;;342507;28;1219;-74
2021/06/25 01:04:42;;;;;;;13.18;9.70;;;;;;;;;;343787;28;1053;-73
2021/06/25 01:04:54;;;;;;;12.48;9.90;;;;;;;;;;345000;28;1042;-72
2021/06/25 01:05:07;;;;;;;12.68;10.18;;;;;;;;;;345889;28;1114;-72
2021/06/25 01:05:19;;;;;;;12.80;9.82;;;;;;;;;;346529;28;1165;-73
2021/06/25 01:05:31;;;;;;;12.62;9.88;;;;;;;;;;346627;28;1107;-74
2021/06/25 01:05:44;;;;;;;12.68;9.90;;;;;;;;;;346412;28;1086;-72
2021/06/25 01:05:56;;;;;;;13.63;9.98;;;;;;;;;;346648;28;1078;-72
2021/06/25 01:06:09;;;;;;;13.32;9.90;;;;;;;;;;346595;28;1192;-73
2021/06/25 01:06:21;;;;;;;13.20;9.95;;;;;;;;;;346838;28;1138;-73
2021/06/25 01:06:33;;;;;;;12.70;9.93;;;;;;;;;;346617;28;986;-73
2021/06/25 01:06:45;;;;;;;11.82;9.80;;;;;;;;;;346639;28;1055;-72
2021/06/25 01:06:58;;;;;;;11.55;9.65;;;;;;;;;;346523;28;1282;-73
2021/06/25 01:07:10;;;;;;;12.26;9.96;;;;;;;;;;346594;28;1140;-73
2021/06/25 01:07:23;;;;;;;12.85;9.90;;;;;;;;;;346527;28;1097;-73
2021/06/25 01:07:35;;;;;;;12.73;9.57;;;;;;;;;;346577;28;1104;-73
2021/06/25 01:07:47;;;;;;;12.45;9.40;;;;;;;;;;347648;28;1276;-73
2021/06/25 01:08:00;;;;;;;12.73;9.43;;;;;;;;;;347621;28;1191;-72
2021/06/25 01:08:12;;;;;;;12.10;9.60;;;;;;;;;;347746;28;1108;-74
2021/06/25 01:08:25;;;;;;;12.40;9.45;;;;;;;;;;347805;28;983;-74
2021/06/25 01:08:38;;;;;;;12.15;9.45;;;;;;;;;;347872;28;1089;-73
2021/06/25 01:08:50;;;;;;;12.38;9.70;;;;;;;;;;347738;28;1098;-73
2021/06/25 01:09:03;;;;;;;11.78;9.64;;;;;;;;;;347713;28;1023;-73
2021/06/25 01:09:17;;;;;;;11.52;9.38;;;;;;;;;;347848;28;1026;-72
2021/06/25 01:09:30;;;;;;;11.30;9.32;;;;;;;;;;347081;28;17068;-74
2021/06/25 01:09:43;;;;;;;12.25;9.43;;;;;;;;;;347351;28;18300;-74
2021/06/25 01:09:55;;;;;;;12.32;9.68;;;;;;;;;;346649;28;1051;-72
2021/06/25 01:10:09;;;;;;;11.98;10.00;;;;;;;;;;346657;28;1106;-73
2021/06/25 01:10:21;;;;;;;11.80;9.88;;;;;;;;;;346019;28;16625;-73
2021/06/25 01:10:37;;;;;;;11.40;9.77;;;;;;;;;;346609;28;1030;-74
2021/06/25 01:10:53;;;;;;;11.85;10.02;;;;;;;;;;344406;28;64016;-73
2021/06/25 01:11:05;;;;;;;12.50;10.00;;;;;;;;;;344534;28;62829;-74
2021/06/25 01:11:18;;;;;;;12.85;10.00;;;;;;;;;;346607;28;1236;-73
2021/06/25 01:11:31;;;;;;;12.68;9.82;;;;;;;;;;346681;28;1165;-72
2021/06/25 01:11:43;;;;;;;13.15;9.73;;;;;;;;;;346544;28;1099;-74
2021/06/25 01:11:55;;;;;;;13.40;9.68;;;;;;;;;;346584;28;1054;-73
2021/06/25 01:12:07;;;;;;;13.95;9.68;;;;;;;;;;346606;28;1506;-71
2021/06/25 01:12:20;;;;;;;13.90;9.50;;;;;;;;;;346403;28;1161;-75
2021/06/25 01:12:33;;;;;;;14.15;9.57;;;;;;;;;;345200;28;1088;-73
2021/06/25 01:12:45;;;;;;;13.32;9.65;;;;;;;;;;345074;28;1172;-72
2021/06/25 01:12:57;;;;;;;13.25;9.88;;;;;;;;;;345079;28;1069;-73
2021/06/25 01:13:10;;;;;;;12.60;9.93;;;;;;;;;;345026;28;1059;-74
2021/06/25 01:13:22;;;;;;;12.77;10.07;;;;;;;;;;345065;28;1400;-74
2021/06/25 01:13:36;;;;;;;13.80;10.10;;;;;;;;;;343720;28;1781;-74
2021/06/25 01:13:49;;;;;;;12.58;9.78;;;;;;;;;;343281;28;17307;-73
2021/06/25 01:14:01;;;;;;;11.25;9.70;;;;;;;;;;343629;28;1158;-75
2021/06/25 01:14:13;;;;;;;12.23;9.60;;;;;;;;;;343730;28;1212;-73
2021/06/25 01:14:26;;;;;;;12.00;9.27;;;;;;;;;;343759;28;1066;-73
2021/06/25 01:14:38;;;;;;;13.10;9.40;;;;;;;;;;345108;28;1091;-75
2021/06/25 01:14:51;;;;;;;14.55;9.95;;;;;;;;;;345189;28;1009;-73
2021/06/25 01:15:03;;;;;;;13.77;10.30;;;;;;;;;;345168;28;1863;-73
2021/06/25 01:15:16;;;;;;;12.73;10.57;;;;;;;;;;345036;28;1225;-74
2021/06/25 01:15:28;;;;;;;12.45;10.68;;;;;;;;;;345057;28;1080;-73
2021/06/25 01:15:40;;;;;;;12.80;10.38;;;;;;;;;;346399;28;1098;-75
2021/06/25 01:15:53;;;;;;;13.30;10.20;;;;;;;;;;346896;28;997;-73
2021/06/25 01:16:06;;;;;;;13.20;10.27;;;;;;;;;;346541;28;1126;-73